Time;durP1;ratioP1;P1;durP2;ratioP2;P2;SDS_P1;SDS_P2;PMS_P1;PMS_P2;Temp;Humidity;BMP_temperature;BMP_pressure;BME280_temperature;BME280_humidity;BME280_pressure;Samples;Min_cycle;Max_cycle;Signal;HPM_P1;HPM_P2
2022/12/08 00:01:03;;;;;;;44.38;25.30;;;;;;;;;;5009491;28;20188;-44
2022/12/08 00:03:29;;;;;;;43.90;25.58;;;;;;;;;;5006261;28;20489;-46
2022/12/08 00:11:24;;;;;;;42.75;26.02;;;;;;;;;;5007345;28;20219;-45
2022/12/08 00:13:50;;;;;;;42.33;26.03;;;;;;;;;;5002827;28;20185;-44
2022/12/08 00:16:16;;;;;;;51.57;29.00;;;;;;;;;;5004752;28;20403;-44
2022/12/08 00:18:42;;;;;;;48.37;27.57;;;;;;;;;;5004095;28;20417;-45
2022/12/08 00:21:08;;;;;;;49.40;28.23;;;;;;;;;;5004431;28;20901;-44
2022/12/08 00:23:34;;;;;;;50.23;27.90;;;;;;;;;;5003618;28;20415;-45
2022/12/08 00:26:03;;;;;;;48.78;28.35;;;;;;;;;;5003342;28;20420;-44
2022/12/08 00:28:29;;;;;;;47.55;27.25;;;;;;;;;;5007662;28;20208;-44
2022/12/08 00:30:55;;;;;;;48.40;27.73;;;;;;;;;;5002562;28;20228;-44
2022/12/08 00:33:21;;;;;;;46.90;27.40;;;;;;;;;;5002914;28;20412;-44
2022/12/08 00:35:47;;;;;;;54.20;30.23;;;;;;;;;;5003581;28;20414;-44
2022/12/08 00:38:13;;;;;;;50.87;27.97;;;;;;;;;;5002882;28;20420;-45
2022/12/08 00:40:43;;;;;;;49.30;28.93;;;;;;;;;;5003393;28;20412;-44
2022/12/08 00:43:09;;;;;;;45.30;28.63;;;;;;;;;;5007059;28;20470;-45
2022/12/08 00:45:35;;;;;;;48.17;27.97;;;;;;;;;;5006579;28;20267;-45
2022/12/08 00:48:01;;;;;;;45.47;26.17;;;;;;;;;;5000216;28;20443;-43
2022/12/08 00:50:27;;;;;;;45.73;28.13;;;;;;;;;;4999980;28;20428;-44
2022/12/08 00:52:53;;;;;;;46.43;28.00;;;;;;;;;;5005306;28;20483;-45
2022/12/08 00:55:19;;;;;;;50.27;28.30;;;;;;;;;;5005902;28;20419;-46
2022/12/08 00:57:45;;;;;;;46.37;28.20;;;;;;;;;;5004013;28;20432;-46
2022/12/08 01:00:11;;;;;;;42.33;27.63;;;;;;;;;;5005483;28;20416;-44
2022/12/08 01:02:37;;;;;;;51.22;28.75;;;;;;;;;;5004892;28;20901;-45
2022/12/08 01:05:03;;;;;;;46.53;26.60;;;;;;;;;;4998896;28;20184;-44
2022/12/08 01:07:29;;;;;;;55.92;30.88;;;;;;;;;;5006237;28;20939;-44
2022/12/08 01:09:56;;;;;;;45.70;26.20;;;;;;;;;;5003382;28;20177;-44
2022/12/08 01:12:22;;;;;;;42.50;26.95;;;;;;;;;;5003812;28;20455;-45
2022/12/08 01:14:48;;;;;;;44.30;26.23;;;;;;;;;;5004352;28;20199;-46
2022/12/08 01:17:14;;;;;;;47.33;27.17;;;;;;;;;;5002657;28;20490;-46
2022/12/08 01:19:40;;;;;;;37.57;23.67;;;;;;;;;;5003216;28;20431;-45
2022/12/08 01:22:06;;;;;;;41.80;24.73;;;;;;;;;;5002746;28;20419;-46
2022/12/08 01:24:32;;;;;;;38.90;25.20;;;;;;;;;;5008222;28;20419;-44
2022/12/08 01:26:58;;;;;;;39.00;24.03;;;;;;;;;;5005548;28;20446;-44
2022/12/08 01:29:24;;;;;;;38.37;24.37;;;;;;;;;;5006034;28;20447;-44
2022/12/08 01:31:49;;;;;;;46.73;24.07;;;;;;;;;;5007342;28;20546;-45
2022/12/08 01:34:15;;;;;;;36.80;25.10;;;;;;;;;;5006230;28;20400;-45
2022/12/08 01:36:43;;;;;;;44.43;23.87;;;;;;;;;;5006996;28;20447;-45
2022/12/08 01:39:11;;;;;;;40.85;23.30;;;;;;;;;;5011103;28;20412;-46
2022/12/08 01:41:38;;;;;;;39.80;24.60;;;;;;;;;;5010949;28;20191;-46
2022/12/08 01:44:10;;;;;;;42.95;24.40;;;;;;;;;;5005000;28;20654;-44
2022/12/08 01:46:38;;;;;;;34.22;24.63;;;;;;;;;;5002173;28;20208;-44
2022/12/08 01:49:15;;;;;;;42.22;25.05;;;;;;;;;;5009622;28;20184;-45
2022/12/08 01:51:43;;;;;;;35.40;21.60;;;;;;;;;;5007229;28;20201;-44
2022/12/08 01:54:10;;;;;;;31.90;22.05;;;;;;;;;;5009906;28;20646;-44
2022/12/08 01:56:45;;;;;;;36.63;23.67;;;;;;;;;;5006449;28;20558;-44
2022/12/08 01:59:11;;;;;;;43.65;25.27;;;;;;;;;;5008435;28;20184;-45
2022/12/08 02:01:37;;;;;;;34.95;23.35;;;;;;;;;;5007456;28;20227;-44
2022/12/08 02:04:04;;;;;;;32.33;22.77;;;;;;;;;;5001455;28;20179;-44
2022/12/08 02:06:32;;;;;;;37.03;22.95;;;;;;;;;;5008872;28;20235;-45
2022/12/08 02:09:00;;;;;;;42.80;25.58;;;;;;;;;;5006021;28;20176;-44
2022/12/08 02:11:26;;;;;;;38.15;25.73;;;;;;;;;;5006340;28;20189;-44
2022/12/08 02:13:52;;;;;;;37.63;23.70;;;;;;;;;;5008226;28;20639;-44
2022/12/08 02:16:39;;;;;;;39.63;24.02;;;;;;;;;;5000020;28;20428;-44
2022/12/08 02:19:19;;;;;;;51.55;27.02;;;;;;;;;;5001134;28;20566;-44
2022/12/08 02:21:48;;;;;;;40.40;23.85;;;;;;;;;;5007130;28;20192;-44
2022/12/08 02:24:22;;;;;;;41.70;23.15;;;;;;;;;;5009610;28;20550;-45
2022/12/08 02:26:57;;;;;;;42.83;24.35;;;;;;;;;;5012983;28;20199;-44
2022/12/08 02:29:42;;;;;;;46.10;25.02;;;;;;;;;;5005910;28;20719;-46
2022/12/08 02:32:11;;;;;;;40.38;23.98;;;;;;;;;;4995593;28;20210;-44
2022/12/08 02:34:45;;;;;;;44.95;25.83;;;;;;;;;;5008600;28;20175;-45
2022/12/08 02:37:13;;;;;;;43.20;26.42;;;;;;;;;;5007050;28;20188;-44
2022/12/08 02:39:52;;;;;;;43.60;25.58;;;;;;;;;;5004943;28;20196;-46
2022/12/08 02:42:31;;;;;;;35.03;22.83;;;;;;;;;;5005472;28;20183;-45
2022/12/08 02:45:00;;;;;;;39.55;24.27;;;;;;;;;;5006048;28;20172;-44
2022/12/08 02:47:27;;;;;;;35.20;22.75;;;;;;;;;;5004891;28;20239;-45
2022/12/08 02:49:54;;;;;;;38.67;22.73;;;;;;;;;;5007434;28;20251;-44
2022/12/08 02:52:20;;;;;;;40.28;23.05;;;;;;;;;;5007800;28;20259;-46
2022/12/08 02:54:52;;;;;;;42.43;22.97;;;;;;;;;;5009562;28;20588;-44
2022/12/08 02:57:37;;;;;;;42.58;23.58;;;;;;;;;;5005078;28;20430;-44
2022/12/08 03:00:16;;;;;;;32.00;20.00;;;;;;;;;;4993844;28;20173;-46
2022/12/08 03:02:45;;;;;;;36.65;21.88;;;;;;;;;;5007356;28;20219;-44
2022/12/08 03:05:14;;;;;;;35.45;19.65;;;;;;;;;;5007710;28;20177;-46
2022/12/08 03:07:47;;;;;;;32.17;18.42;;;;;;;;;;5004064;28;20203;-46
2022/12/08 03:10:19;;;;;;;39.90;21.33;;;;;;;;;;5004845;28;20165;-43
2022/12/08 03:12:58;;;;;;;32.67;20.35;;;;;;;;;;5005940;28;20225;-44
2022/12/08 03:15:24;;;;;;;35.15;19.70;;;;;;;;;;5004519;28;20188;-45
2022/12/08 03:17:54;;;;;;;31.93;19.97;;;;;;;;;;5006448;28;20205;-45
2022/12/08 03:20:21;;;;;;;37.20;19.55;;;;;;;;;;5007481;28;20455;-46
2022/12/08 03:22:48;;;;;;;31.52;18.17;;;;;;;;;;5008770;28;20532;-44
2022/12/08 03:25:16;;;;;;;36.50;21.00;;;;;;;;;;5004503;28;20192;-45
2022/12/08 03:27:46;;;;;;;32.95;20.10;;;;;;;;;;5000579;28;20295;-44
2022/12/08 03:30:12;;;;;;;35.35;18.50;;;;;;;;;;5007761;28;20176;-44
2022/12/08 03:32:38;;;;;;;27.70;17.13;;;;;;;;;;5005360;28;20218;-43
2022/12/08 03:35:10;;;;;;;28.63;18.63;;;;;;;;;;5007307;28;20889;-44
2022/12/08 03:37:37;;;;;;;34.08;17.65;;;;;;;;;;5000735;28;20427;-44
2022/12/08 03:40:07;;;;;;;37.60;19.27;;;;;;;;;;5006827;28;20180;-44
2022/12/08 03:42:33;;;;;;;35.83;20.25;;;;;;;;;;5005389;28;20330;-45
2022/12/08 03:44:59;;;;;;;32.95;18.40;;;;;;;;;;5004078;28;20208;-46
2022/12/08 03:47:25;;;;;;;32.00;18.80;;;;;;;;;;5007773;28;20283;-45
2022/12/08 03:49:52;;;;;;;31.60;19.80;;;;;;;;;;5003871;28;20817;-44
2022/12/08 03:52:18;;;;;;;32.47;18.27;;;;;;;;;;5004341;28;21124;-46
2022/12/08 03:54:44;;;;;;;33.63;16.73;;;;;;;;;;5004972;28;20204;-45
2022/12/08 03:57:12;;;;;;;34.53;19.47;;;;;;;;;;5003814;28;20752;-44
2022/12/08 03:59:38;;;;;;;26.65;17.33;;;;;;;;;;5004730;28;20774;-47
2022/12/08 04:02:04;;;;;;;28.98;17.50;;;;;;;;;;5009194;28;20204;-44
2022/12/08 04:04:30;;;;;;;32.20;19.77;;;;;;;;;;5007070;28;20188;-46
2022/12/08 04:06:56;;;;;;;30.53;18.10;;;;;;;;;;5001995;28;20443;-44
2022/12/08 04:12:26;;;;;;;27.92;16.75;;;;;;;;;;5006576;28;20274;-44
2022/12/08 04:14:51;;;;;;;26.63;16.50;;;;;;;;;;5005105;28;20181;-44
2022/12/08 04:17:17;;;;;;;28.37;18.90;;;;;;;;;;5005662;28;20470;-44
2022/12/08 04:19:43;;;;;;;29.77;17.23;;;;;;;;;;5004538;28;20898;-44
2022/12/08 04:22:09;;;;;;;34.50;18.60;;;;;;;;;;5005221;28;20466;-44
2022/12/08 04:24:35;;;;;;;32.73;18.27;;;;;;;;;;5004677;28;20553;-44
2022/12/08 04:27:01;;;;;;;34.90;18.40;;;;;;;;;;4995968;28;20436;-45
2022/12/08 04:29:27;;;;;;;25.30;15.27;;;;;;;;;;5008371;28;20777;-45
2022/12/08 04:31:53;;;;;;;31.50;17.03;;;;;;;;;;5002897;28;20200;-45
2022/12/08 04:34:19;;;;;;;28.10;16.67;;;;;;;;;;5003669;28;20415;-46
2022/12/08 04:36:45;;;;;;;26.37;15.10;;;;;;;;;;4998792;28;21012;-44
2022/12/08 04:39:11;;;;;;;26.57;16.23;;;;;;;;;;4995177;28;20827;-44
2022/12/08 04:41:37;;;;;;;30.00;16.83;;;;;;;;;;5003574;28;20780;-45
2022/12/08 04:44:03;;;;;;;29.10;15.17;;;;;;;;;;5005519;28;20803;-44
2022/12/08 04:46:29;;;;;;;27.90;14.93;;;;;;;;;;5009829;28;20415;-46
2022/12/08 04:48:55;;;;;;;25.23;14.10;;;;;;;;;;5004009;28;20673;-43
2022/12/08 04:51:21;;;;;;;25.67;14.17;;;;;;;;;;5000271;28;20816;-43
2022/12/08 04:53:47;;;;;;;29.93;14.97;;;;;;;;;;5007461;28;20968;-43
2022/12/08 04:56:14;;;;;;;26.43;14.67;;;;;;;;;;5003079;28;20927;-43
2022/12/08 04:58:40;;;;;;;26.67;15.27;;;;;;;;;;4998130;28;20412;-43
2022/12/08 05:01:06;;;;;;;30.55;16.45;;;;;;;;;;5000646;28;20180;-43
2022/12/08 05:03:32;;;;;;;26.87;14.77;;;;;;;;;;5000270;28;20169;-43
2022/12/08 05:06:01;;;;;;;25.83;14.90;;;;;;;;;;5003051;28;20411;-43
2022/12/08 05:08:27;;;;;;;25.92;14.93;;;;;;;;;;5002267;28;20432;-43
2022/12/08 05:10:53;;;;;;;25.55;13.50;;;;;;;;;;5004284;28;20263;-44
2022/12/08 05:13:19;;;;;;;25.53;13.90;;;;;;;;;;5000581;28;20177;-43
2022/12/08 05:15:45;;;;;;;25.77;13.73;;;;;;;;;;4996325;28;20416;-43
2022/12/08 05:18:11;;;;;;;20.17;12.23;;;;;;;;;;5003261;28;20458;-43
2022/12/08 05:20:37;;;;;;;20.57;12.73;;;;;;;;;;5003311;28;20423;-43
2022/12/08 05:23:03;;;;;;;21.70;13.80;;;;;;;;;;5003467;28;20787;-44
2022/12/08 05:25:29;;;;;;;24.57;13.50;;;;;;;;;;5000637;28;20400;-42
2022/12/08 05:27:54;;;;;;;23.30;14.87;;;;;;;;;;5002433;28;20438;-44
2022/12/08 05:30:20;;;;;;;22.80;12.67;;;;;;;;;;4996918;28;20433;-43
2022/12/08 05:32:46;;;;;;;21.70;14.47;;;;;;;;;;5007601;28;20933;-43
2022/12/08 05:35:12;;;;;;;26.13;15.23;;;;;;;;;;5002792;28;20457;-42
2022/12/08 05:37:38;;;;;;;19.73;12.00;;;;;;;;;;4999337;28;20474;-43
2022/12/08 05:40:05;;;;;;;25.33;13.90;;;;;;;;;;5002612;28;20411;-43
2022/12/08 05:42:31;;;;;;;23.40;14.82;;;;;;;;;;5000032;28;20613;-43
2022/12/08 05:44:57;;;;;;;22.60;13.47;;;;;;;;;;5001032;28;20177;-43
2022/12/08 05:47:22;;;;;;;28.53;14.10;;;;;;;;;;4999586;28;20439;-43
2022/12/08 05:49:48;;;;;;;24.27;14.83;;;;;;;;;;5005841;28;20415;-43
2022/12/08 05:52:15;;;;;;;26.30;14.00;;;;;;;;;;5001430;28;20505;-43
2022/12/08 05:54:41;;;;;;;24.27;13.18;;;;;;;;;;4997695;28;20404;-43
2022/12/08 05:57:08;;;;;;;22.65;14.23;;;;;;;;;;4999744;28;20243;-43
2022/12/08 05:59:34;;;;;;;27.33;13.95;;;;;;;;;;4999701;28;20173;-44
2022/12/08 06:02:00;;;;;;;26.70;13.80;;;;;;;;;;5003081;28;20255;-43
2022/12/08 06:04:26;;;;;;;21.87;13.50;;;;;;;;;;5002267;28;20444;-43
2022/12/08 06:06:52;;;;;;;25.38;15.27;;;;;;;;;;5003678;28;20437;-43
2022/12/08 06:09:17;;;;;;;22.77;13.53;;;;;;;;;;5000108;28;20185;-44
2022/12/08 06:11:45;;;;;;;29.53;16.63;;;;;;;;;;4997984;28;20466;-44
2022/12/08 06:14:11;;;;;;;29.42;15.27;;;;;;;;;;5006513;28;20403;-43
2022/12/08 06:16:37;;;;;;;23.00;14.73;;;;;;;;;;5004238;28;20658;-43
2022/12/08 06:19:03;;;;;;;28.43;16.20;;;;;;;;;;5006396;28;20180;-43
2022/12/08 06:21:30;;;;;;;29.10;17.08;;;;;;;;;;5003392;28;20458;-44
2022/12/08 06:23:56;;;;;;;24.30;15.37;;;;;;;;;;5005900;28;20695;-43
2022/12/08 06:26:22;;;;;;;28.80;14.33;;;;;;;;;;5001577;28;20889;-43
2022/12/08 06:28:48;;;;;;;102.70;64.63;;;;;;;;;;4990677;28;20427;-42
2022/12/08 06:31:18;;;;;;;25.63;15.55;;;;;;;;;;4999252;28;20466;-43
2022/12/08 06:33:44;;;;;;;26.90;17.77;;;;;;;;;;4997408;28;20177;-44
2022/12/08 06:36:11;;;;;;;27.38;16.85;;;;;;;;;;5002927;28;20183;-43
2022/12/08 06:38:38;;;;;;;57.45;19.10;;;;;;;;;;5002839;28;20192;-43
2022/12/08 06:41:04;;;;;;;206.15;139.07;;;;;;;;;;5002830;28;20256;-43
2022/12/08 06:43:32;;;;;;;28.40;16.48;;;;;;;;;;5002029;28;20647;-44
2022/12/08 06:45:57;;;;;;;29.98;18.00;;;;;;;;;;5004926;28;20262;-43
2022/12/08 06:48:23;;;;;;;257.67;47.20;;;;;;;;;;5005771;28;20927;-44
2022/12/08 06:50:49;;;;;;;31.77;17.63;;;;;;;;;;5000803;28;20969;-43
2022/12/08 06:53:16;;;;;;;27.03;14.97;;;;;;;;;;5005604;28;20801;-43
2022/12/08 06:55:43;;;;;;;74.03;20.23;;;;;;;;;;5007347;28;20419;-43
2022/12/08 06:58:09;;;;;;;431.90;118.32;;;;;;;;;;4998456;28;20215;-44
2022/12/08 07:00:35;;;;;;;25.87;15.17;;;;;;;;;;5005720;28;20172;-43
2022/12/08 07:03:01;;;;;;;40.08;18.30;;;;;;;;;;4994671;28;20404;-43
2022/12/08 07:05:27;;;;;;;33.33;19.67;;;;;;;;;;5002788;28;20537;-43
2022/12/08 07:07:53;;;;;;;28.80;16.47;;;;;;;;;;5004558;28;20795;-44
2022/12/08 07:10:19;;;;;;;53.90;18.77;;;;;;;;;;5001871;28;20882;-44
2022/12/08 07:12:46;;;;;;;28.90;16.03;;;;;;;;;;4999055;28;21052;-42
2022/12/08 07:15:12;;;;;;;29.58;18.67;;;;;;;;;;5008105;28;20487;-43
2022/12/08 07:17:38;;;;;;;27.57;15.10;;;;;;;;;;5007565;28;20619;-43
2022/12/08 07:20:05;;;;;;;31.37;17.27;;;;;;;;;;5005626;28;20415;-43
2022/12/08 07:22:31;;;;;;;32.60;16.70;;;;;;;;;;4989667;28;20438;-43
2022/12/08 07:24:57;;;;;;;27.07;15.50;;;;;;;;;;4999823;28;20268;-44
2022/12/08 07:27:23;;;;;;;29.87;16.00;;;;;;;;;;5001898;28;20431;-43
2022/12/08 07:29:48;;;;;;;28.80;16.00;;;;;;;;;;4997769;28;20413;-43
2022/12/08 07:32:14;;;;;;;27.33;17.40;;;;;;;;;;5001883;28;20507;-43
2022/12/08 07:34:40;;;;;;;26.80;16.40;;;;;;;;;;5001401;28;20414;-43
2022/12/08 07:37:06;;;;;;;28.70;16.47;;;;;;;;;;5004906;28;20418;-43
2022/12/08 07:39:32;;;;;;;23.30;13.40;;;;;;;;;;5009036;28;20407;-43
2022/12/08 07:41:59;;;;;;;23.87;15.00;;;;;;;;;;5001766;28;20491;-43
2022/12/08 07:44:25;;;;;;;26.92;16.00;;;;;;;;;;5001762;28;20438;-43
2022/12/08 07:46:51;;;;;;;26.20;15.93;;;;;;;;;;4996289;28;20204;-43
2022/12/08 07:49:17;;;;;;;27.13;15.40;;;;;;;;;;5004732;28;20542;-43
2022/12/08 07:51:43;;;;;;;28.83;17.63;;;;;;;;;;5001669;28;20806;-43
2022/12/08 07:54:11;;;;;;;23.87;13.00;;;;;;;;;;5003527;28;20816;-43
2022/12/08 07:56:37;;;;;;;24.90;15.73;;;;;;;;;;5001439;28;20474;-43
2022/12/08 07:59:03;;;;;;;28.63;15.70;;;;;;;;;;5002748;28;20181;-43
2022/12/08 08:01:30;;;;;;;23.07;14.73;;;;;;;;;;5000331;28;20403;-43
2022/12/08 08:04:00;;;;;;;25.05;16.25;;;;;;;;;;5001565;28;20982;-43
2022/12/08 08:06:26;;;;;;;25.98;16.10;;;;;;;;;;5004736;28;20171;-43
2022/12/08 08:08:52;;;;;;;25.63;15.70;;;;;;;;;;4999701;28;20192;-43
2022/12/08 08:11:18;;;;;;;25.73;16.40;;;;;;;;;;5000518;28;20460;-44
2022/12/08 08:13:44;;;;;;;24.00;15.48;;;;;;;;;;5001196;28;20180;-43
2022/12/08 08:16:12;;;;;;;25.27;15.57;;;;;;;;;;5000514;28;20171;-43
2022/12/08 08:18:38;;;;;;;24.50;15.90;;;;;;;;;;5001044;28;20419;-43
2022/12/08 08:21:04;;;;;;;26.50;16.15;;;;;;;;;;5005703;28;20185;-43
2022/12/08 08:23:30;;;;;;;24.38;14.15;;;;;;;;;;5003721;28;20176;-42
2022/12/08 08:25:59;;;;;;;24.30;15.70;;;;;;;;;;4997870;28;20184;-42
2022/12/08 08:28:25;;;;;;;27.23;16.80;;;;;;;;;;4997683;28;20949;-43
2022/12/08 08:30:51;;;;;;;30.03;18.23;;;;;;;;;;5002443;28;20208;-43
2022/12/08 08:33:16;;;;;;;26.87;16.47;;;;;;;;;;5003345;28;20399;-43
2022/12/08 08:35:42;;;;;;;28.60;18.00;;;;;;;;;;5001400;28;20458;-43
2022/12/08 08:38:08;;;;;;;29.83;18.40;;;;;;;;;;5002856;28;20434;-43
2022/12/08 08:40:34;;;;;;;27.13;18.37;;;;;;;;;;5002548;28;20415;-43
2022/12/08 08:43:01;;;;;;;29.47;18.00;;;;;;;;;;4996333;28;20406;-42
2022/12/08 08:45:27;;;;;;;26.77;16.45;;;;;;;;;;5003650;28;20466;-42
2022/12/08 08:47:53;;;;;;;27.33;16.55;;;;;;;;;;5000703;28;20204;-43
2022/12/08 08:50:19;;;;;;;29.87;17.87;;;;;;;;;;5001613;28;20169;-44
2022/12/08 08:52:45;;;;;;;150.13;116.30;;;;;;;;;;5001539;28;20466;-43
2022/12/08 08:55:11;;;;;;;27.70;16.00;;;;;;;;;;5000918;28;20408;-44
2022/12/08 08:57:37;;;;;;;23.07;14.20;;;;;;;;;;5004338;28;20432;-44
2022/12/08 09:00:08;;;;;;;20.53;13.50;;;;;;;;;;5002752;28;20701;-43
2022/12/08 09:02:34;;;;;;;21.13;14.18;;;;;;;;;;5000353;28;20412;-43
2022/12/08 09:05:00;;;;;;;17.30;12.93;;;;;;;;;;5001407;28;20181;-43
2022/12/08 09:07:26;;;;;;;17.83;13.50;;;;;;;;;;4999979;28;20466;-43
2022/12/08 09:09:52;;;;;;;19.43;12.57;;;;;;;;;;5006481;28;20407;-43
2022/12/08 09:12:19;;;;;;;22.97;15.03;;;;;;;;;;5002274;28;20978;-43
2022/12/08 09:14:45;;;;;;;19.35;13.07;;;;;;;;;;4998038;28;20408;-43
2022/12/08 09:17:11;;;;;;;23.30;14.40;;;;;;;;;;4999781;28;20548;-43
2022/12/08 09:19:37;;;;;;;17.13;12.07;;;;;;;;;;5000238;28;20420;-43
2022/12/08 09:22:04;;;;;;;19.00;13.00;;;;;;;;;;5003479;28;20173;-43
2022/12/08 09:24:30;;;;;;;20.35;13.20;;;;;;;;;;5001489;28;20555;-42
2022/12/08 09:26:56;;;;;;;20.37;13.50;;;;;;;;;;5004159;28;20279;-43
2022/12/08 09:29:24;;;;;;;18.27;12.63;;;;;;;;;;5001546;28;20399;-43
2022/12/08 09:31:50;;;;;;;18.85;12.65;;;;;;;;;;4996748;28;20555;-42
2022/12/08 09:34:16;;;;;;;18.02;11.50;;;;;;;;;;5003359;28;20172;-43
2022/12/08 09:36:42;;;;;;;20.08;12.57;;;;;;;;;;5001233;28;20192;-43
2022/12/08 09:39:08;;;;;;;19.00;13.03;;;;;;;;;;4989369;28;20181;-43
2022/12/08 09:41:34;;;;;;;17.55;12.57;;;;;;;;;;4985383;28;20480;-43
2022/12/08 09:44:00;;;;;;;19.50;11.70;;;;;;;;;;4989991;28;20184;-43
2022/12/08 09:46:28;;;;;;;19.17;12.00;;;;;;;;;;4990222;28;20792;-43
2022/12/08 09:48:55;;;;;;;17.80;12.77;;;;;;;;;;4994028;28;20404;-43
2022/12/08 09:51:22;;;;;;;19.67;13.50;;;;;;;;;;5006849;28;20192;-43
2022/12/08 09:53:50;;;;;;;17.67;12.98;;;;;;;;;;5003557;28;20165;-43
2022/12/08 09:56:21;;;;;;;18.08;13.05;;;;;;;;;;5002789;28;20178;-43
2022/12/08 09:58:53;;;;;;;16.75;11.60;;;;;;;;;;4997355;28;20176;-43
2022/12/08 10:01:20;;;;;;;16.27;11.50;;;;;;;;;;5003253;28;20181;-44
2022/12/08 10:03:46;;;;;;;15.82;11.50;;;;;;;;;;5004872;28;20239;-43
2022/12/08 10:06:12;;;;;;;15.60;12.02;;;;;;;;;;5007866;28;20244;-43
2022/12/08 10:08:46;;;;;;;18.13;12.50;;;;;;;;;;5000261;28;20257;-42
2022/12/08 10:11:15;;;;;;;16.33;11.82;;;;;;;;;;4994757;28;20467;-42
2022/12/08 10:13:50;;;;;;;19.02;11.23;;;;;;;;;;4994952;28;20172;-43
2022/12/08 10:16:28;;;;;;;20.65;12.52;;;;;;;;;;4994661;28;20177;-42
2022/12/08 10:18:56;;;;;;;21.33;12.30;;;;;;;;;;4994649;28;20592;-42
2022/12/08 10:21:24;;;;;;;24.08;14.18;;;;;;;;;;4996439;28;20633;-42
2022/12/08 10:23:54;;;;;;;20.88;13.75;;;;;;;;;;5014555;28;20168;-42
2022/12/08 10:26:21;;;;;;;22.30;13.77;;;;;;;;;;4995360;28;20187;-43
2022/12/08 10:28:47;;;;;;;19.05;12.10;;;;;;;;;;4995101;28;20648;-42
2022/12/08 10:31:23;;;;;;;21.63;14.07;;;;;;;;;;4994723;28;20268;-42
2022/12/08 10:33:57;;;;;;;19.90;13.30;;;;;;;;;;4995505;28;20420;-42
2022/12/08 10:36:27;;;;;;;22.13;14.30;;;;;;;;;;4994613;28;20587;-43
2022/12/08 10:38:53;;;;;;;97.45;85.28;;;;;;;;;;4987412;28;20177;-43
2022/12/08 10:41:19;;;;;;;24.70;14.97;;;;;;;;;;4979304;28;20288;-43
2022/12/08 10:43:50;;;;;;;24.45;14.25;;;;;;;;;;4994476;28;20408;-43
2022/12/08 10:46:16;;;;;;;19.95;12.57;;;;;;;;;;4994751;28;20173;-40
2022/12/08 10:48:51;;;;;;;19.47;13.40;;;;;;;;;;4994373;28;20336;-41
2022/12/08 10:51:24;;;;;;;17.48;13.15;;;;;;;;;;4994330;28;20814;-41
2022/12/08 10:53:50;;;;;;;25.42;15.68;;;;;;;;;;4994291;28;20177;-41
2022/12/08 10:56:17;;;;;;;1999.90;999.90;;;;;;;;;;4993652;28;20651;-41
2022/12/08 10:58:47;;;;;;;306.83;183.57;;;;;;;;;;4994377;28;20945;-40
2022/12/08 11:01:19;;;;;;;25.30;14.70;;;;;;;;;;5005456;28;20180;-41
2022/12/08 11:03:49;;;;;;;60.35;17.63;;;;;;;;;;5002536;28;20251;-41
2022/12/08 11:06:17;;;;;;;19.98;13.18;;;;;;;;;;5002768;28;20654;-41
2022/12/08 11:08:50;;;;;;;87.63;43.47;;;;;;;;;;5003032;28;20706;-41
2022/12/08 11:11:20;;;;;;;180.90;113.57;;;;;;;;;;4996058;28;20566;-44
2022/12/08 11:13:47;;;;;;;23.27;13.40;;;;;;;;;;5002100;28;20183;-42
2022/12/08 11:16:14;;;;;;;68.40;23.95;;;;;;;;;;5002046;28;20650;-43
2022/12/08 11:18:42;;;;;;;1999.90;999.90;;;;;;;;;;5007951;28;20529;-43
2022/12/08 11:21:13;;;;;;;15.27;11.52;;;;;;;;;;5005299;28;20242;-42
2022/12/08 11:23:40;;;;;;;14.77;11.23;;;;;;;;;;4998687;28;20172;-42
2022/12/08 11:26:15;;;;;;;15.40;11.35;;;;;;;;;;5000743;28;20182;-42
2022/12/08 11:28:41;;;;;;;17.75;12.50;;;;;;;;;;5002605;28;20177;-42
2022/12/08 11:31:22;;;;;;;16.63;11.97;;;;;;;;;;5005140;28;20550;-42
2022/12/08 11:33:49;;;;;;;19.10;12.77;;;;;;;;;;5001678;28;20408;-42
2022/12/08 11:36:15;;;;;;;19.38;12.68;;;;;;;;;;5002652;28;20180;-42
2022/12/08 11:38:43;;;;;;;18.85;11.82;;;;;;;;;;5003328;28;20604;-42
2022/12/08 11:41:20;;;;;;;19.05;12.70;;;;;;;;;;4997721;28;20208;-43
2022/12/08 11:44:05;;;;;;;20.38;13.90;;;;;;;;;;4993303;28;20460;-42
2022/12/08 11:46:37;;;;;;;19.92;13.75;;;;;;;;;;4982567;28;20687;-42
2022/12/08 11:49:05;;;;;;;22.52;15.50;;;;;;;;;;4982136;28;20646;-43
2022/12/08 11:51:33;;;;;;;22.98;15.20;;;;;;;;;;4993138;28;20700;-42
2022/12/08 11:56:33;;;;;;;26.05;18.25;;;;;;;;;;4965141;28;20202;-47
2022/12/08 11:59:01;;;;;;;27.38;18.10;;;;;;;;;;4973655;28;20196;-46
2022/12/08 12:01:28;;;;;;;26.88;17.25;;;;;;;;;;4973549;28;20593;-46
2022/12/08 12:03:54;;;;;;;24.95;15.70;;;;;;;;;;4973557;28;20582;-46
2022/12/08 12:06:26;;;;;;;30.50;18.77;;;;;;;;;;4973245;28;20292;-46
2022/12/08 12:09:01;;;;;;;29.40;19.15;;;;;;;;;;4972499;28;20887;-47
2022/12/08 12:14:21;;;;;;;27.27;17.55;;;;;;;;;;4973321;28;20586;-47
2022/12/08 12:17:01;;;;;;;28.07;17.73;;;;;;;;;;4973204;28;20185;-47
2022/12/08 12:19:29;;;;;;;34.00;19.27;;;;;;;;;;4972102;28;20421;-46
2022/12/08 12:22:07;;;;;;;28.13;18.02;;;;;;;;;;4973362;28;20185;-46
2022/12/08 12:24:37;;;;;;;31.50;17.73;;;;;;;;;;4973082;28;20674;-47
2022/12/08 12:27:06;;;;;;;32.20;20.05;;;;;;;;;;4973191;28;20277;-47
2022/12/08 12:29:34;;;;;;;27.13;19.10;;;;;;;;;;4973247;28;20662;-46
2022/12/08 12:32:08;;;;;;;30.83;18.27;;;;;;;;;;4973005;28;20209;-47
2022/12/08 12:34:38;;;;;;;24.98;17.05;;;;;;;;;;4973107;28;20305;-46
2022/12/08 12:37:07;;;;;;;30.35;17.40;;;;;;;;;;4972984;28;20284;-46
2022/12/08 12:39:45;;;;;;;22.35;15.20;;;;;;;;;;4973166;28;20182;-47
2022/12/08 12:42:31;;;;;;;28.98;16.73;;;;;;;;;;4972945;28;20177;-46
2022/12/08 12:45:24;;;;;;;24.60;17.10;;;;;;;;;;4972898;28;20213;-46
2022/12/08 12:47:50;;;;;;;29.63;17.23;;;;;;;;;;4972830;28;20177;-47
2022/12/08 12:50:38;;;;;;;26.00;17.10;;;;;;;;;;4973080;28;20670;-47
2022/12/08 12:53:06;;;;;;;25.55;16.23;;;;;;;;;;4972969;28;20417;-46
2022/12/08 12:55:50;;;;;;;29.52;18.60;;;;;;;;;;4972745;28;20201;-47
2022/12/08 12:58:34;;;;;;;27.15;17.48;;;;;;;;;;4972802;28;20176;-46
2022/12/08 13:01:12;;;;;;;24.50;16.83;;;;;;;;;;4972858;28;20169;-47
2022/12/08 13:03:42;;;;;;;31.63;17.25;;;;;;;;;;4973025;28;20662;-46
2022/12/08 13:06:13;;;;;;;23.48;15.88;;;;;;;;;;4953361;28;20198;-46
2022/12/08 13:08:40;;;;;;;25.40;16.95;;;;;;;;;;4971120;28;20217;-46
2022/12/08 13:11:09;;;;;;;24.85;14.68;;;;;;;;;;4972806;28;20287;-46
2022/12/08 13:13:36;;;;;;;21.98;16.02;;;;;;;;;;4972808;28;20180;-45
2022/12/08 13:16:13;;;;;;;25.65;15.73;;;;;;;;;;4976020;28;20284;-46
2022/12/08 13:18:46;;;;;;;21.20;15.02;;;;;;;;;;4976666;28;20181;-46
2022/12/08 13:21:16;;;;;;;22.60;14.07;;;;;;;;;;4987176;28;20235;-46
2022/12/08 13:23:42;;;;;;;21.92;14.07;;;;;;;;;;4985439;28;20216;-46
2022/12/08 13:26:14;;;;;;;24.27;16.15;;;;;;;;;;4986974;28;20255;-47
2022/12/08 13:29:00;;;;;;;25.83;15.52;;;;;;;;;;4985384;28;20174;-47
2022/12/08 13:31:45;;;;;;;22.17;14.30;;;;;;;;;;4979981;28;20640;-47
2022/12/08 13:34:10;;;;;;;22.30;15.02;;;;;;;;;;4977867;28;20180;-46
2022/12/08 13:36:38;;;;;;;18.97;14.50;;;;;;;;;;4984396;28;20256;-46
2022/12/08 13:39:05;;;;;;;18.70;12.45;;;;;;;;;;4981408;28;20924;-46
2022/12/08 13:41:37;;;;;;;17.25;13.05;;;;;;;;;;4976467;28;20217;-47
2022/12/08 13:44:12;;;;;;;18.20;13.23;;;;;;;;;;4976417;28;20252;-47
2022/12/08 13:46:58;;;;;;;15.52;11.93;;;;;;;;;;4976395;28;20245;-46
2022/12/08 13:49:27;;;;;;;20.50;13.35;;;;;;;;;;4976240;28;20672;-46
2022/12/08 13:51:53;;;;;;;22.58;15.55;;;;;;;;;;4976210;28;20708;-46
2022/12/08 13:54:28;;;;;;;20.40;14.15;;;;;;;;;;4975883;28;20728;-47
2022/12/08 13:56:55;;;;;;;23.40;14.48;;;;;;;;;;4975977;28;20531;-46
2022/12/08 13:59:27;;;;;;;21.40;15.48;;;;;;;;;;4976120;28;20177;-47
2022/12/08 14:01:54;;;;;;;26.05;16.23;;;;;;;;;;4976179;28;20193;-47
2022/12/08 14:04:21;;;;;;;21.70;14.60;;;;;;;;;;4975930;28;20336;-46
2022/12/08 14:06:50;;;;;;;26.00;16.08;;;;;;;;;;4975868;28;20182;-46
2022/12/08 14:09:25;;;;;;;21.60;14.40;;;;;;;;;;4975924;28;20181;-46
2022/12/08 14:11:58;;;;;;;23.95;15.98;;;;;;;;;;4975782;28;20197;-46
2022/12/08 14:14:27;;;;;;;22.38;14.85;;;;;;;;;;4975697;28;20209;-46
2022/12/08 14:16:55;;;;;;;23.38;14.80;;;;;;;;;;4975724;28;20236;-46
2022/12/08 14:19:25;;;;;;;24.65;16.65;;;;;;;;;;4974288;28;20189;-47
2022/12/08 14:21:54;;;;;;;25.38;16.70;;;;;;;;;;4975602;28;20667;-47
2022/12/08 14:24:21;;;;;;;22.20;16.50;;;;;;;;;;4975275;28;20686;-47
2022/12/08 14:26:47;;;;;;;21.05;14.73;;;;;;;;;;4974979;28;20543;-46
2022/12/08 14:29:22;;;;;;;22.88;15.07;;;;;;;;;;4975386;28;20240;-46
2022/12/08 14:31:48;;;;;;;27.70;16.35;;;;;;;;;;4973186;28;20205;-46
2022/12/08 14:34:14;;;;;;;20.70;14.90;;;;;;;;;;4974933;28;20232;-46
2022/12/08 14:36:40;;;;;;;21.90;15.00;;;;;;;;;;4973665;28;20205;-47